Time;durP1;ratioP1;P1;durP2;ratioP2;P2;SDS_P1;SDS_P2;PMS_P1;PMS_P2;Temp;Humidity;BMP_temperature;BMP_pressure;BME280_temperature;BME280_humidity;BME280_pressure;Samples;Min_cycle;Max_cycle;Signal;HPM_P1;HPM_P2
2022/06/16 00:00:48;;;;;;;1.27;0.77;;;;;;;;;;5035881;28;20422;-79
2022/06/16 00:03:14;;;;;;;2.33;0.77;;;;;;;;;;5027997;28;20465;-78
2022/06/16 00:05:42;;;;;;;3.13;0.90;;;;;;;;;;5030780;28;20436;-78
2022/06/16 00:08:09;;;;;;;2.22;1.45;;;;;;;;;;5034827;28;20397;-79
2022/06/16 00:10:36;;;;;;;2.78;1.30;;;15.10;99.90;;;;;;5030902;28;20407;-80
2022/06/16 00:13:02;;;;;;;1.27;0.80;;;;;;;;;;5034802;28;20430;-79
2022/06/16 00:15:29;;;;;;;2.90;1.40;;;;;;;;;;5035706;28;20454;-79
2022/06/16 00:17:55;;;;;;;1.70;0.85;;;16.10;99.90;;;;;;5040339;28;20458;-79
2022/06/16 00:20:21;;;;;;;1.80;0.90;;;;;;;;;;5031381;28;20783;-79
2022/06/16 00:22:47;;;;;;;2.35;0.98;;;;;;;;;;5038813;28;20398;-79
2022/06/16 00:25:14;;;;;;;2.08;0.82;;;;;;;;;;5036890;28;20418;-79
2022/06/16 00:27:40;;;;;;;2.53;0.88;;;;;;;;;;5037689;28;20414;-79
2022/06/16 00:30:06;;;;;;;2.70;1.20;;;;;;;;;;5037994;28;20461;-80
2022/06/16 00:32:32;;;;;;;3.45;0.90;;;;;;;;;;5029252;28;20558;-80
2022/06/16 00:34:58;;;;;;;2.15;1.13;;;;;;;;;;5044070;28;21066;-79
2022/06/16 00:37:24;;;;;;;2.85;1.30;;;;;;;;;;5035761;28;20431;-79
2022/06/16 00:39:50;;;;;;;2.30;1.00;;;;;;;;;;5035183;28;21680;-80
2022/06/16 00:42:18;;;;;;;2.53;0.90;;;;;;;;;;5037195;28;20410;-80
2022/06/16 00:44:46;;;;;;;2.30;0.80;;;;;;;;;;5035754;28;20467;-80
2022/06/16 00:47:12;;;;;;;1.60;1.00;;;;;;;;;;5030834;28;20405;-80
2022/06/16 00:49:42;;;;;;;3.43;1.03;;;;;;;;;;5036354;28;20414;-80
2022/06/16 00:52:13;;;;;;;1.77;0.90;;;;;;;;;;5039340;28;20407;-80
2022/06/16 00:54:59;;;;;;;2.72;1.50;;;;;;;;;;5040737;28;20979;-80
2022/06/16 00:57:32;;;;;;;2.55;1.00;;;;;;;;;;5037479;28;20462;-80
2022/06/16 00:59:58;;;;;;;2.10;0.98;;;;;;;;;;5042070;28;21265;-79
2022/06/16 01:02:26;;;;;;;1.40;0.80;;;;;;;;;;5033453;28;20452;-80
2022/06/16 01:04:52;;;;;;;4.03;1.10;;;;;;;;;;5037627;28;20426;-80
2022/06/16 01:07:28;;;;;;;1.52;0.77;;;;;;;;;;5040700;28;20446;-80
2022/06/16 01:09:55;;;;;;;2.30;1.00;;;;;;;;;;5035156;28;20393;-79
2022/06/16 01:15:23;;;;;;;2.75;0.93;;;;;;;;;;5042369;28;20453;-80
2022/06/16 01:17:52;;;;;;;1.52;0.80;;;;;;;;;;5041014;28;20498;-80
2022/06/16 01:20:23;;;;;;;1.38;1.02;;;;;;;;;;5033855;28;20456;-79
2022/06/16 01:22:57;;;;;;;1.70;1.08;;;;;;;;;;5040615;28;20407;-80
2022/06/16 01:25:26;;;;;;;3.63;1.10;;;;;;;;;;5035181;28;20412;-79
2022/06/16 01:28:04;;;;;;;1.60;0.95;;;;;;;;;;5046107;28;20479;-80
2022/06/16 01:30:41;;;;;;;2.10;0.90;;;;;;;;;;5036813;28;20407;-79
2022/06/16 01:33:07;;;;;;;2.08;0.85;;;;;;;;;;5044283;28;20407;-80
2022/06/16 01:35:40;;;;;;;1.80;0.90;;;;;;;;;;5037710;28;20425;-81
2022/06/16 01:38:26;;;;;;;2.67;1.30;;;;;;;;;;5034258;28;21001;-79
2022/06/16 01:40:55;;;;;;;2.60;0.80;;;;;;;;;;5039639;28;21042;-80
2022/06/16 01:43:43;;;;;;;2.22;0.90;;;;;;;;;;5040351;28;20407;-80
2022/06/16 01:46:14;;;;;;;1.83;0.90;;;;;;;;;;5044537;28;20402;-80
2022/06/16 01:48:43;;;;;;;1.40;0.93;;;14.10;99.90;;;;;;5042180;28;20406;-79
2022/06/16 01:51:11;;;;;;;2.70;1.10;;;;;;;;;;5044956;28;20899;-80
2022/06/16 01:53:40;;;;;;;2.60;0.70;;;;;;;;;;5029312;28;20407;-80
2022/06/16 01:56:17;;;;;;;1.90;0.90;;;;;;;;;;5036061;28;20430;-80
2022/06/16 01:58:46;;;;;;;1.70;0.80;;;;;;;;;;5040531;28;20415;-80
2022/06/16 02:01:15;;;;;;;1.60;0.98;;;;;;;;;;5036011;28;20407;-80
2022/06/16 02:03:43;;;;;;;1.40;0.90;;;;;;;;;;5043692;28;20466;-80
2022/06/16 02:06:12;;;;;;;1.55;0.70;;;;;;;;;;5036638;28;20430;-80
2022/06/16 02:08:40;;;;;;;1.65;0.88;;;;;;;;;;5039742;28;20420;-80
2022/06/16 02:11:13;;;;;;;1.17;0.65;;;;;;;;;;5035306;28;20461;-80
2022/06/16 02:13:43;;;;;;;2.25;0.85;;;;;;;;;;5040961;28;20417;-80
2022/06/16 02:16:38;;;;;;;1.55;0.80;;;;;;;;;;5042078;28;20858;-80
2022/06/16 02:19:06;;;;;;;1.80;0.73;;;;;;;;;;5040570;28;20525;-80
2022/06/16 02:21:36;;;;;;;1.63;0.90;;;;;;;;;;5041193;28;20432;-80
2022/06/16 02:24:03;;;;;;;2.45;0.80;;;;;;;;;;5040642;28;20445;-79
2022/06/16 02:26:30;;;;;;;1.70;0.70;;;14.10;99.90;;;;;;5040798;28;20422;-80
2022/06/16 02:28:58;;;;;;;1.67;1.08;;;;;;;;;;5039164;28;20449;-80
2022/06/16 02:31:35;;;;;;;1.70;1.10;;;;;;;;;;5034988;28;20964;-80
2022/06/16 02:34:17;;;;;;;1.40;0.80;;;;;;;;;;5042018;28;21308;-80
2022/06/16 02:37:06;;;;;;;2.97;1.17;;;;;;;;;;5033606;28;20422;-79
2022/06/16 02:39:46;;;;;;;4.30;0.80;;;;;;;;;;5037917;28;20427;-79
2022/06/16 02:42:31;;;;;;;3.07;0.80;;;;;;;;;;5036335;28;20407;-78
2022/06/16 02:45:10;;;;;;;2.85;1.20;;;;;;;;;;5032010;28;20415;-79
2022/06/16 02:47:57;;;;;;;2.35;1.00;;;;;;;;;;5040333;28;20437;-80
2022/06/16 02:50:42;;;;;;;1.85;0.93;;;;;;;;;;5029707;28;20407;-80
2022/06/16 02:53:14;;;;;;;2.78;0.95;;;;;;;;;;5030665;28;20418;-79
2022/06/16 02:55:45;;;;;;;1.97;1.07;;;;;;;;;;5039711;28;20411;-80
2022/06/16 02:58:13;;;;;;;2.30;1.00;;;;;;;;;;5040193;28;20445;-79
2022/06/16 03:00:41;;;;;;;3.50;1.10;;;;;;;;;;5030103;28;20418;-79
2022/06/16 03:03:16;;;;;;;2.08;1.02;;;;;;;;;;5038512;28;20415;-79
2022/06/16 03:05:42;;;;;;;1.73;0.97;;;;;;;;;;5020064;28;20419;-79
2022/06/16 03:08:08;;;;;;;2.28;0.90;;;;;;;;;;5029238;28;20417;-79
2022/06/16 03:10:52;;;;;;;1.98;0.95;;;;;;;;;;5037383;28;20399;-80
2022/06/16 03:13:22;;;;;;;2.35;0.95;;;;;;;;;;5036861;28;20578;-80
2022/06/16 03:15:49;;;;;;;2.83;0.95;;;;;;;;;;5033456;28;20422;-80
2022/06/16 03:18:15;;;;;;;2.50;1.10;;;;;;;;;;5034201;28;20428;-80
2022/06/16 03:20:41;;;;;;;1.83;0.90;;;;;;;;;;5028778;28;20433;-79
2022/06/16 03:23:07;;;;;;;2.60;0.97;;;;;;;;;;5037967;28;20399;-79
2022/06/16 03:25:34;;;;;;;1.85;1.00;;;;;;;;;;5032710;28;20449;-79
2022/06/16 03:28:00;;;;;;;2.20;0.93;;;;;;;;;;5019512;28;20937;-79
2022/06/16 03:30:26;;;;;;;2.07;1.07;;;;;;;;;;5031086;28;20478;-79
2022/06/16 03:32:51;;;;;;;1.60;1.00;;;;;;;;;;5043584;28;20436;-79
2022/06/16 03:35:17;;;;;;;2.00;1.10;;;;;;;;;;5030678;28;20430;-79
2022/06/16 03:37:43;;;;;;;4.05;1.13;;;;;;;;;;5036488;28;20433;-79
2022/06/16 03:40:13;;;;;;;3.20;1.10;;;;;;;;;;5031398;28;20434;-79
2022/06/16 03:42:39;;;;;;;2.58;1.00;;;;;;;;;;5030276;28;20480;-78
2022/06/16 03:45:05;;;;;;;2.40;1.13;;;;;;;;;;5035075;28;20478;-79
2022/06/16 03:47:31;;;;;;;2.30;1.00;;;;;;;;;;5030015;28;21308;-79
2022/06/16 03:49:57;;;;;;;2.38;1.02;;;;;;;;;;5033895;28;20762;-79
2022/06/16 03:52:23;;;;;;;2.65;1.17;;;;;;;;;;5034048;28;20405;-80
2022/06/16 03:54:48;;;;;;;2.38;1.00;;;13.90;99.90;;;;;;5036273;28;20434;-79
2022/06/16 03:57:15;;;;;;;1.90;1.15;;;;;;;;;;5035507;28;20402;-79
2022/06/16 03:59:41;;;;;;;1.53;0.93;;;;;;;;;;5033866;28;20907;-79
2022/06/16 04:02:07;;;;;;;2.00;1.10;;;;;;;;;;5036432;28;20419;-80
2022/06/16 04:04:32;;;;;;;2.05;0.90;;;;;;;;;;5034208;28;20407;-79
2022/06/16 04:06:58;;;;;;;2.53;1.00;;;;;;;;;;5038591;28;20484;-79
2022/06/16 04:09:24;;;;;;;2.17;1.10;;;;;;;;;;5032437;28;20415;-79
2022/06/16 04:11:50;;;;;;;2.03;1.20;;;;;;;;;;5032988;28;20395;-80
2022/06/16 04:14:16;;;;;;;1.77;1.00;;;;;;;;;;5028626;28;20555;-79
2022/06/16 04:16:44;;;;;;;3.67;1.55;;;;;;;;;;5030480;28;20430;-80
2022/06/16 04:19:12;;;;;;;2.80;1.60;;;;;;;;;;5033272;28;20426;-79
2022/06/16 04:21:39;;;;;;;2.85;1.10;;;;;;;;;;5041996;28;20474;-80
2022/06/16 04:24:05;;;;;;;3.72;1.27;;;;;;;;;;5037467;28;20483;-79
2022/06/16 04:26:31;;;;;;;1.90;1.13;;;;;;;;;;5035572;28;20413;-79
2022/06/16 04:28:57;;;;;;;2.58;0.98;;;;;;;;;;5033919;28;20923;-79
2022/06/16 04:31:23;;;;;;;2.55;1.05;;;;;;;;;;5032814;28;20419;-80
2022/06/16 04:33:49;;;;;;;2.03;0.90;;;;;;;;;;5033750;28;20927;-80
2022/06/16 04:36:15;;;;;;;3.57;1.10;;;;;;;;;;5037812;28;20431;-79
2022/06/16 04:38:41;;;;;;;3.40;1.20;;;;;;;;;;5031458;28;23083;-79
2022/06/16 04:41:07;;;;;;;2.67;1.00;;;;;;;;;;5035275;28;20410;-79
2022/06/16 04:43:33;;;;;;;2.17;0.93;;;;;;;;;;5042039;28;20413;-79
2022/06/16 04:46:00;;;;;;;2.95;1.00;;;;;;;;;;5033242;28;20415;-80
2022/06/16 04:48:27;;;;;;;1.67;1.00;;;14.20;99.90;;;;;;5026364;28;20407;-79
2022/06/16 04:50:53;;;;;;;2.33;1.30;;;;;;;;;;5035733;28;20443;-79
2022/06/16 04:53:19;;;;;;;3.55;1.48;;;;;;;;;;5031896;28;20413;-79
2022/06/16 04:55:51;;;;;;;1.92;0.98;;;;;;;;;;5040279;28;20742;-79
2022/06/16 04:58:17;;;;;;;2.42;1.30;;;;;;;;;;5029633;28;20442;-80
2022/06/16 05:00:43;;;;;;;2.28;1.40;;;;;;;;;;5036973;28;20431;-80
2022/06/16 05:03:09;;;;;;;1.83;0.95;;;;;;;;;;5033233;28;20400;-80
2022/06/16 05:05:35;;;;;;;1.73;1.13;;;;;;;;;;5031122;28;20417;-80
2022/06/16 05:08:01;;;;;;;2.55;1.20;;;;;;;;;;5036635;28;20411;-80
2022/06/16 05:10:27;;;;;;;1.63;1.00;;;;;;;;;;5042727;28;20462;-81
2022/06/16 05:12:53;;;;;;;1.98;1.20;;;;;;;;;;5033451;28;20447;-80
2022/06/16 05:15:19;;;;;;;2.00;1.00;;;;;;;;;;5039279;28;20448;-80
2022/06/16 05:17:45;;;;;;;1.77;1.13;;;;;;;;;;5044346;28;20464;-80
2022/06/16 05:20:11;;;;;;;1.55;0.90;;;;;;;;;;5036665;28;20423;-81
2022/06/16 05:22:37;;;;;;;2.50;0.97;;;;;;;;;;5031195;28;21247;-80
2022/06/16 05:25:04;;;;;;;2.60;1.10;;;;;;;;;;5040685;28;20414;-80
2022/06/16 05:27:30;;;;;;;3.38;1.08;;;;;;;;;;5028774;28;20470;-79
2022/06/16 05:29:55;;;;;;;1.83;1.17;;;;;;;;;;5034599;28;20788;-79
2022/06/16 05:32:22;;;;;;;2.28;0.90;;;;;;;;;;5033481;28;20400;-80
2022/06/16 05:34:48;;;;;;;4.35;0.80;;;;;;;;;;5031949;28;20764;-80
2022/06/16 05:37:14;;;;;;;1.88;0.88;;;;;;;;;;5036768;28;20498;-81
2022/06/16 05:39:40;;;;;;;2.47;1.20;;;;;;;;;;5027257;28;20669;-81
2022/06/16 05:42:08;;;;;;;1.70;1.00;;;;;;;;;;5027263;28;20407;-80
2022/06/16 05:44:34;;;;;;;3.50;1.30;;;;;;;;;;5020083;28;20992;-82
2022/06/16 05:47:01;;;;;;;2.67;1.23;;;;;;;;;;5027453;28;20479;-81
2022/06/16 05:49:26;;;;;;;1.90;1.23;;;;;;;;;;5029550;28;20408;-81
2022/06/16 05:51:52;;;;;;;3.42;1.25;;;;;;;;;;5038339;28;20778;-82
2022/06/16 05:54:18;;;;;;;2.50;1.30;;;;;;;;;;5034616;28;21290;-81
2022/06/16 05:56:44;;;;;;;3.07;1.23;;;;;;;;;;5030503;28;20545;-81
2022/06/16 05:59:11;;;;;;;2.22;1.15;;;;;;;;;;5027439;28;20419;-81
2022/06/16 06:01:37;;;;;;;2.28;1.15;;;;;;;;;;5028424;28;20403;-80
2022/06/16 06:04:03;;;;;;;2.35;1.00;;;;;;;;;;5030575;28;20475;-80
2022/06/16 06:06:30;;;;;;;1.75;1.02;;;;;;;;;;5023554;28;20412;-81
2022/06/16 06:17:14;;;;;;;1.17;0.80;;;;;;;;;;5034684;28;20421;-80
2022/06/16 06:19:40;;;;;;;1.65;0.85;;;27.20;92.80;;;;;;5035638;28;20760;-80
2022/06/16 06:22:15;;;;;;;3.80;0.88;;;27.90;80.60;;;;;;5035481;28;20040;-80
2022/06/16 06:24:49;;;;;;;3.45;0.95;;;28.60;76.80;;;;;;5037265;28;20042;-80
2022/06/16 06:27:28;;;;;;;0.90;0.63;;;;;;;;;;5031505;28;20044;-80
2022/06/16 06:29:54;;;;;;;3.65;0.93;;;;;;;;;;5028029;28;20029;-80
2022/06/16 06:32:21;;;;;;;3.25;0.95;;;25.70;85.70;;;;;;5036630;28;21526;-78
2022/06/16 06:34:47;;;;;;;2.42;1.20;;;;;;;;;;5034345;28;20053;-79
2022/06/16 06:37:14;;;;;;;;;;;25.10;89.30;;;;;;5033476;28;20040;-79
2022/06/16 06:39:40;;;;;;;;;;;23.60;90.40;;;;;;5042260;28;19916;-79
2022/06/16 06:42:06;;;;;;;;;;;24.70;91.70;;;;;;5041787;28;19974;-79
2022/06/16 06:44:32;;;;;;;;;;;25.20;92.90;;;;;;5047574;28;19976;-79
2022/06/16 06:46:57;;;;;;;;;;;25.90;91.20;;;;;;5053842;28;19904;-78
2022/06/16 06:49:23;;;;;;;;;;;;;;;;;;5051387;28;19984;-78
2022/06/16 06:51:50;;;;;;;;;;;29.30;82.00;;;;;;5056694;28;19936;-79
2022/06/16 06:54:17;;;;;;;2.55;0.70;;;30.70;80.60;;;;;;5052649;28;19927;-79
2022/06/16 06:56:43;;;;;;;;;;;32.20;69.10;;;;;;5047730;28;20025;-80
2022/06/16 06:59:13;;;;;;;;;;;32.70;63.80;;;;;;5047266;28;19920;-79
2022/06/16 07:01:39;;;;;;;;;;;33.10;57.40;;;;;;5039791;28;19901;-79
2022/06/16 07:04:05;;;;;;;;;;;32.70;58.20;;;;;;5033485;28;19916;-79
2022/06/16 07:06:31;;;;;;;;;;;32.60;56.30;;;;;;5036198;28;19917;-79
2022/06/16 07:08:57;;;;;;;3.60;1.10;;;;;;;;;;5034129;28;19917;-77
2022/06/16 07:11:23;;;;;;;1.42;0.88;;;;;;;;;;5029285;28;20470;-77
2022/06/16 07:13:49;;;;;;;1.65;0.85;;;34.60;58.10;;;;;;5029490;28;20399;-78
2022/06/16 07:16:14;;;;;;;;;;;34.40;54.20;;;;;;5033195;28;20038;-78
2022/06/16 07:18:40;;;;;;;;;;;35.30;48.30;;;;;;5034693;28;19972;-78
2022/06/16 07:21:06;;;;;;;1.88;1.05;;;33.40;58.70;;;;;;5028467;28;20401;-78
2022/06/16 07:23:31;;;;;;;;;;;32.80;50.70;;;;;;5030581;28;20155;-78
2022/06/16 07:25:57;;;;;;;;;;;30.80;54.00;;;;;;5031630;28;19998;-78
2022/06/16 07:28:23;;;;;;;;;;;31.20;53.60;;;;;;5029539;28;21097;-79
2022/06/16 07:30:48;;;;;;;;;;;31.10;54.00;;;;;;5025221;28;20023;-80
2022/06/16 07:33:14;;;;;;;;;;;31.30;53.90;;;;;;5038490;28;19923;-80
2022/06/16 07:35:41;;;;;;;;;;;31.10;52.10;;;;;;5031518;28;19917;-80
2022/06/16 07:38:07;;;;;;;;;;;30.90;53.00;;;;;;5035727;28;19917;-79
2022/06/16 07:40:32;;;;;;;;;;;31.10;53.00;;;;;;5030006;28;19926;-81
2022/06/16 07:42:58;;;;;;;;;;;30.90;50.50;;;;;;5026409;28;19917;-79
2022/06/16 07:45:24;;;;;;;;;;;32.70;50.20;;;;;;5024877;28;19913;-79
2022/06/16 07:47:53;;;;;;;;;;;33.00;47.60;;;;;;5032781;28;19917;-80
2022/06/16 07:50:19;;;;;;;;;;;33.50;47.40;;;;;;5024891;28;19909;-80
2022/06/16 07:52:44;;;;;;;;;;;34.20;44.80;;;;;;5021978;28;20289;-79
2022/06/16 07:55:10;;;;;;;;;;;34.50;43.50;;;;;;5030501;28;19938;-79
2022/06/16 07:57:40;;;;;;;;;;;35.00;44.50;;;;;;5024855;28;20597;-80
2022/06/16 08:00:06;;;;;;;;;;;34.00;45.00;;;;;;5029000;28;19927;-79
2022/06/16 08:02:31;;;;;;;;;;;33.50;45.40;;;;;;5026742;28;19909;-79
2022/06/16 08:04:57;;;;;;;;;;;33.10;46.80;;;;;;5029431;28;20354;-80
2022/06/16 08:07:22;;;;;;;;;;;33.40;45.40;;;;;;5024055;28;19912;-78
2022/06/16 08:09:48;;;;;;;;;;;34.70;46.40;;;;;;5026779;28;20277;-78
2022/06/16 08:12:15;;;;;;;;;;;33.50;46.40;;;;;;5027506;28;19913;-78
2022/06/16 08:14:42;;;;;;;;;;;33.50;46.10;;;;;;5026039;28;19946;-78
2022/06/16 08:17:12;;;;;;;;;;;33.40;45.80;;;;;;5025983;28;19913;-78
2022/06/16 08:19:37;;;;;;;;;;;33.00;47.40;;;;;;5012340;28;19921;-78
2022/06/16 08:22:03;;;;;;;;;;;32.60;47.70;;;;;;5028626;28;19924;-79
2022/06/16 08:24:29;;;;;;;;;;;32.70;48.70;;;;;;5025640;28;20448;-78
2022/06/16 08:26:55;;;;;;;;;;;32.80;46.20;;;;;;5031568;28;19909;-79
2022/06/16 08:29:20;;;;;;;;;;;32.80;46.00;;;;;;5015553;28;22235;-80
2022/06/16 08:31:46;;;;;;;;;;;32.60;46.90;;;;;;5022572;28;19909;-79
2022/06/16 08:34:12;;;;;;;;;;;32.90;48.70;;;;;;5010259;28;19920;-78
2022/06/16 08:36:37;;;;;;;;;;;32.90;46.10;;;;;;5015455;28;19913;-77
2022/06/16 08:39:04;;;;;;;;;;;33.20;45.90;;;;;;5022851;28;20380;-77
2022/06/16 08:41:33;;;;;;;;;;;33.70;44.50;;;;;;5031807;28;19988;-79
2022/06/16 08:44:07;;;;;;;;;;;34.40;43.50;;;;;;5022667;28;19991;-79
2022/06/16 08:46:36;;;;;;;;;;;35.80;41.90;;;;;;5029781;28;19924;-79
2022/06/16 08:49:11;;;;;;;;;;;38.20;40.70;;;;;;5024177;28;19960;-79
2022/06/16 08:51:39;;;;;;;;;;;38.20;37.90;;;;;;5025091;28;19917;-79
2022/06/16 08:54:05;;;;;;;;;;;;;;;;;;5025182;28;20254;-79
2022/06/16 08:56:50;;;;;;;;;;;39.90;36.20;;;;;;5016808;28;19912;-79
2022/06/16 08:59:21;;;;;;;;;;;40.10;35.80;;;;;;5020843;28;20285;-79
2022/06/16 09:01:53;;;;;;;;;;;40.60;34.40;;;;;;5026394;28;19944;-81
2022/06/16 09:04:44;;;;;;;2.20;1.38;;;40.60;33.60;;;;;;5030556;28;19941;-81
2022/06/16 09:07:25;;;;;;;2.70;1.33;;;40.70;34.40;;;;;;5015913;28;20033;-80
2022/06/16 09:10:25;;;;;;;2.17;1.10;;;41.50;32.00;;;;;;5007678;28;20033;-80
2022/06/16 09:12:51;;;;;;;1.48;1.10;;;;;;;;;;5025449;28;21725;-79
2022/06/16 09:15:44;;;;;;;2.00;1.00;;;41.00;31.90;;;;;;5028388;28;20133;-79
2022/06/16 09:18:13;;;;;;;1.40;1.10;;;;;;;;;;5026950;28;20131;-78
2022/06/16 09:21:24;;;;;;;2.20;1.08;;;40.10;33.30;;;;;;5037225;28;20129;-79
2022/06/16 09:23:59;;;;;;;4.63;1.45;;;;;;;;;;5019863;28;20075;-79
2022/06/16 09:26:25;;;;;;;1.60;1.23;;;;;;;;;;5013379;28;20045;-78
2022/06/16 09:28:52;;;;;;;2.15;1.10;;;;;;;;;;5009394;28;20895;-79
2022/06/16 09:31:26;;;;;;;;;;;37.30;38.20;;;;;;5015520;28;20048;-80
2022/06/16 09:34:03;;;;;;;3.03;1.25;;;35.50;38.80;;;;;;5023083;28;19913;-82
2022/06/16 09:36:35;;;;;;;;;;;34.90;39.00;;;;;;5017200;28;20018;-82
2022/06/16 09:39:05;;;;;;;;;;;33.70;42.80;;;;;;5013223;28;21105;-81
2022/06/16 09:44:34;;;;;;;;;;;31.90;45.80;;;;;;5027169;28;19923;-83
2022/06/16 09:47:02;;;;;;;;;;;30.40;46.60;;;;;;5006050;28;19917;-82
2022/06/16 09:49:31;;;;;;;;;;;31.00;46.30;;;;;;5023412;28;19917;-82
2022/06/16 09:52:17;;;;;;;;;;;29.60;46.60;;;;;;5024502;28;19909;-83
2022/06/16 09:54:45;;;;;;;;;;;30.30;47.10;;;;;;5025591;28;19920;-83
2022/06/16 09:57:13;;;;;;;;;;;30.20;49.10;;;;;;5034598;28;19932;-83
2022/06/16 09:59:45;;;;;;;;;;;29.10;48.40;;;;;;5042329;28;19916;-83
2022/06/16 10:02:21;;;;;;;;;;;31.70;51.40;;;;;;5040899;28;19913;-82
2022/06/16 10:04:47;;;;;;;;;;;;;;;;;;5038005;28;19916;-82
2022/06/16 10:07:19;;;;;;;;;;;29.40;48.80;;;;;;5027547;28;19913;-80
2022/06/16 10:09:44;;;;;;;;;;;29.90;49.10;;;;;;5015535;28;19919;-81
2022/06/16 10:12:10;;;;;;;;;;;;;;;;;;5018946;28;20110;-82
2022/06/16 10:14:41;;;;;;;;;;;29.40;48.80;;;;;;5020699;28;20364;-82
2022/06/16 10:17:11;;;;;;;;;;;29.60;49.60;;;;;;5028710;28;19919;-82
2022/06/16 10:19:43;;;;;;;;;;;29.60;49.60;;;;;;5029969;28;19921;-81
2022/06/16 10:22:10;;;;;;;;;;;29.40;49.40;;;;;;5029520;28;19959;-81
2022/06/16 10:24:38;;;;;;;;;;;28.10;49.20;;;;;;5034901;28;19976;-81
2022/06/16 10:27:03;;;;;;;;;;;29.10;50.10;;;;;;5036697;28;20495;-81
2022/06/16 10:29:30;;;;;;;;;;;28.10;50.90;;;;;;5036541;28;19913;-82
2022/06/16 10:31:56;;;;;;;;;;;28.60;51.90;;;;;;5039338;28;20484;-81
2022/06/16 10:34:24;;;;;;;;;;;28.00;50.60;;;;;;5031279;28;19935;-81
2022/06/16 10:36:55;;;;;;;;;;;28.40;51.10;;;;;;5038436;28;20281;-81
2022/06/16 10:39:23;;;;;;;;;;;28.20;51.40;;;;;;5034533;28;19948;-81
2022/06/16 10:41:51;;;;;;;;;;;28.50;52.30;;;;;;5035530;28;19955;-82
2022/06/16 10:44:18;;;;;;;;;;;28.30;50.40;;;;;;5038489;28;20288;-81
2022/06/16 10:46:47;;;;;;;;;;;28.30;50.30;;;;;;5038492;28;19917;-82
2022/06/16 10:49:18;;;;;;;;;;;28.60;51.30;;;;;;5029258;28;20031;-82
2022/06/16 10:52:06;;;;;;;;;;;28.90;50.60;;;;;;5035678;28;19916;-82
2022/06/16 10:54:33;;;;;;;;;;;29.50;51.30;;;;;;5033618;28;19940;-82
2022/06/16 10:57:06;;;;;;;;;;;28.40;51.10;;;;;;5042019;28;19927;-80
2022/06/16 10:59:34;;;;;;;;;;;29.60;50.80;;;;;;5041708;28;19905;-80
2022/06/16 11:02:01;;;;;;;;;;;29.50;51.80;;;;;;5042800;28;20424;-81
2022/06/16 11:04:34;;;;;;;;;;;29.70;50.40;;;;;;5032376;28;20360;-81
2022/06/16 11:07:00;;;;;;;;;;;29.60;51.00;;;;;;5034486;28;20458;-81
2022/06/16 11:09:28;;;;;;;;;;;29.60;51.80;;;;;;5037965;28;19917;-80
2022/06/16 11:11:53;;;;;;;;;;;29.70;51.40;;;;;;5035635;28;19997;-82
2022/06/16 11:14:33;;;;;;;;;;;28.50;51.10;;;;;;5030809;28;19971;-82
2022/06/16 11:16:58;;;;;;;;;;;28.40;50.90;;;;;;5035462;28;19932;-80
2022/06/16 11:19:28;;;;;;;;;;;29.60;50.70;;;;;;5040195;28;19913;-80
2022/06/16 11:21:54;;;;;;;;;;;28.60;50.70;;;;;;5037709;28;19927;-82
2022/06/16 11:24:30;;;;;;;;;;;28.50;50.50;;;;;;5034147;28;19909;-81
2022/06/16 11:27:09;;;;;;;;;;;29.80;51.10;;;;;;5035971;28;19905;-81
2022/06/16 11:29:34;;;;;;;;;;;29.90;51.80;;;;;;5036830;28;20572;-80
2022/06/16 11:32:05;;;;;;;;;;;29.70;51.40;;;;;;5033378;28;19909;-82
2022/06/16 11:34:32;;;;;;;;;;;28.50;50.20;;;;;;5031852;28;19921;-82
2022/06/16 11:37:04;;;;;;;;;;;28.50;51.40;;;;;;5032220;28;20071;-83
2022/06/16 11:39:49;;;;;;;;;;;29.70;52.00;;;;;;5033783;28;19917;-82
2022/06/16 11:42:17;;;;;;;;;;;29.80;51.20;;;;;;5034616;28;19910;-82
2022/06/16 11:44:49;;;;;;;;;;;29.00;48.40;;;;;;5032376;28;19917;-81
2022/06/16 11:47:33;;;;;;;;;;;29.20;48.30;;;;;;5033306;28;19963;-81
2022/06/16 11:50:10;;;;;;;;;;;30.30;50.10;;;;;;5034495;28;20012;-80
2022/06/16 11:52:43;;;;;;;;;;;30.10;47.90;;;;;;5039922;28;19913;-80
2022/06/16 11:55:33;;;;;;;;;;;30.30;49.10;;;;;;5036808;28;20281;-80
2022/06/16 11:57:58;;;;;;;;;;;29.40;46.20;;;;;;5031296;28;20352;-80
2022/06/16 12:00:32;;;;;;;;;;;30.30;46.90;;;;;;5023342;28;19925;-79
2022/06/16 12:03:24;;;;;;;;;;;30.50;48.40;;;;;;5035551;28;19916;-79
2022/06/16 12:06:00;;;;;;;;;;;30.60;47.70;;;;;;5021956;28;19956;-80
2022/06/16 12:08:25;;;;;;;;;;;30.80;47.90;;;;;;5030182;28;19912;-81
2022/06/16 12:10:52;;;;;;;;;;;30.80;47.60;;;;;;5037808;28;19920;-80
2022/06/16 12:13:27;;;;;;;;;;;30.90;47.00;;;;;;5047312;28;19945;-82
2022/06/16 12:15:52;;;;;;;;;;;33.10;48.20;;;;;;5039992;28;19917;-82
2022/06/16 12:18:47;;;;;;;;;;;29.50;45.90;;;;;;5036516;28;19920;-82
2022/06/16 12:21:34;;;;;;;;;;;30.30;45.90;;;;;;5029840;28;19951;-82
2022/06/16 12:24:02;;;;;;;;;;;30.30;46.30;;;;;;5043501;28;19936;-81
2022/06/16 12:26:34;;;;;;;;;;;31.20;46.80;;;;;;5055436;28;19898;-81
2022/06/16 12:29:15;;;;;;;;;;;29.70;46.40;;;;;;5044515;28;19929;-81
2022/06/16 12:31:52;;;;;;;;;;;30.30;47.70;;;;;;5039056;28;19917;-82
2022/06/16 12:34:26;;;;;;;;;;;29.10;45.30;;;;;;5045164;28;19921;-81
2022/06/16 12:36:54;;;;;;;;;;;29.00;45.30;;;;;;5052043;28;19916;-81
2022/06/16 12:39:24;;;;;;;;;;;30.10;44.90;;;;;;5051902;28;20997;-81
2022/06/16 12:41:52;;;;;;;;;;;29.00;45.10;;;;;;5045072;28;19913;-82
2022/06/16 12:44:23;;;;;;;;;;;29.80;47.60;;;;;;5040478;28;19919;-82
2022/06/16 12:47:05;;;;;;;;;;;29.80;46.90;;;;;;5036182;28;19927;-80
2022/06/16 12:49:36;;;;;;;;;;;28.60;46.10;;;;;;5032737;28;20007;-79
2022/06/16 12:52:10;;;;;;;;;;;28.50;47.20;;;;;;5032893;28;20389;-78
2022/06/16 12:54:39;;;;;;;;;;;29.50;46.80;;;;;;5034553;28;19923;-79
2022/06/16 12:57:26;;;;;;;;;;;29.70;46.90;;;;;;5034323;28;19905;-79
2022/06/16 12:59:59;;;;;;;;;;;29.50;46.90;;;;;;5037161;28;19917;-80
2022/06/16 13:02:30;;;;;;;;;;;29.60;46.80;;;;;;5035592;28;19976;-80
2022/06/16 13:04:57;;;;;;;;;;;29.10;46.10;;;;;;5035842;28;19945;-79
2022/06/16 13:07:24;;;;;;;;;;;29.60;47.70;;;;;;5037022;28;19913;-80
2022/06/16 13:09:50;;;;;;;;;;;29.30;47.40;;;;;;5030486;28;20245;-80
2022/06/16 13:12:21;;;;;;;;;;;29.60;46.80;;;;;;5033141;28;19924;-79
2022/06/16 13:14:47;;;;;;;;;;;;;;;;;;5034851;28;19964;-80
2022/06/16 13:17:12;;;;;;;;;;;29.70;47.80;;;;;;5029183;28;19966;-79
2022/06/16 13:20:01;;;;;;;;;;;28.60;47.00;;;;;;5032362;28;19921;-79
2022/06/16 13:22:33;;;;;;;;;;;29.80;46.90;;;;;;5026770;28;19909;-81
2022/06/16 13:24:59;;;;;;;;;;;;;;;;;;5026204;28;19913;-79
2022/06/16 13:27:26;;;;;;;;;;;29.00;47.20;;;;;;5028245;28;20286;-81
2022/06/16 13:29:52;;;;;;;;;;;28.30;47.50;;;;;;5030889;28;19920;-80
2022/06/16 13:32:36;;;;;;;;;;;28.20;47.00;;;;;;5035490;28;19975;-80
2022/06/16 13:35:26;;;;;;;;;;;28.80;47.80;;;;;;5038980;28;20450;-80
2022/06/16 13:38:03;;;;;;;;;;;28.50;47.60;;;;;;5036422;28;19976;-80
2022/06/16 13:40:29;;;;;;;;;;;29.50;49.30;;;;;;5035098;28;19913;-82
2022/06/16 13:43:01;;;;;;;;;;;29.50;47.30;;;;;;5025753;28;19909;-81
2022/06/16 13:45:29;;;;;;;;;;;29.30;46.80;;;;;;5031853;28;19909;-81
2022/06/16 13:48:11;;;;;;;;;;;28.90;47.30;;;;;;5035332;28;19924;-79
2022/06/16 13:50:57;;;;;;;;;;;29.20;47.70;;;;;;5039581;28;20384;-80
2022/06/16 13:53:25;;;;;;;;;;;28.20;45.40;;;;;;5033441;28;20332;-83
2022/06/16 13:55:53;;;;;;;;;;;28.70;44.80;;;;;;5035641;28;19919;-81
2022/06/16 13:58:23;;;;;;;;;;;29.50;45.20;;;;;;5014988;28;19917;-82
2022/06/16 14:01:07;;;;;;;;;;;29.30;44.00;;;;;;5034071;28;19917;-80
2022/06/16 14:03:34;;;;;;;;;;;28.30;43.20;;;;;;5027137;28;19971;-80
2022/06/16 14:06:05;;;;;;;;;;;28.20;43.70;;;;;;5031283;28;19916;-80
2022/06/16 14:08:30;;;;;;;;;;;28.20;43.60;;;;;;5021994;28;19967;-81
2022/06/16 14:11:14;;;;;;;;;;;29.30;44.30;;;;;;5026773;28;19909;-79
2022/06/16 14:13:43;;;;;;;;;;;29.20;43.30;;;;;;5025265;28;19909;-80
2022/06/16 14:16:08;;;;;;;;;;;29.10;41.70;;;;;;5036401;28;19924;-80
2022/06/16 14:18:48;;;;;;;;;;;28.80;41.60;;;;;;5028395;28;19909;-82
2022/06/16 14:21:14;;;;;;;;;;;28.60;40.90;;;;;;5035773;28;19967;-81
2022/06/16 14:23:43;;;;;;;;;;;28.20;40.00;;;;;;5028549;28;19921;-79
2022/06/16 14:26:14;;;;;;;;;;;27.90;40.40;;;;;;5032139;28;19917;-79
2022/06/16 14:28:42;;;;;;;;;;;29.00;40.00;;;;;;5027073;28;19968;-81
2022/06/16 14:31:14;;;;;;;;;;;29.20;38.80;;;;;;5032551;28;20440;-81
2022/06/16 14:33:45;;;;;;;;;;;29.10;39.80;;;;;;5031157;28;19948;-80
2022/06/16 14:36:16;;;;;;;;;;;28.70;40.50;;;;;;5024991;28;19916;-79
2022/06/16 14:38:54;;;;;;;;;;;28.10;39.40;;;;;;5019961;28;20078;-78
2022/06/16 14:41:31;;;;;;;;;;;28.80;41.10;;;;;;5026820;28;19952;-79
2022/06/16 14:44:17;;;;;;;;;;;28.00;40.10;;;;;;5028471;28;19917;-79
2022/06/16 14:46:43;;;;;;;;;;;28.20;39.40;;;;;;5030233;28;20531;-79
2022/06/16 14:49:09;;;;;;;;;;;28.40;40.40;;;;;;5023418;28;19917;-79
2022/06/16 14:51:38;;;;;;;;;;;29.10;39.30;;;;;;5030245;28;19909;-79
2022/06/16 14:54:04;;;;;;;;;;;29.10;39.20;;;;;;5030750;28;19919;-79